Ganser Bar, California
Current Conditions -  °F | °C
As of 2:55 AM on Friday 31 Oct 2014 (Local Time) from KCIC Reporting Station
Clear Clear  
Wind Chill: 64°   Ceiling: Unl
Heat Index: 64°   Visibility: 10mi
Dew Point: 48°   Wind: 17mph
Humidity: 56%   Direction: 140°SE
Pressure: 29.84"   Gusts: 22mph
Location:  40.0464°N, 121.282°W
Report Text: KCIC 310955Z AUTO 14015G19KT 10SM CLR 18/09 A2984 RMK AO1
Loading
Personal Weather Stations






























Interactive Weather Map
Tropical Storm Tracking
New forecast layout! Learn more

10-Day Weather Forecast

Advertisements
Track Severe Weather on mobile